logo
Search for airport 
image banner adimage banner adimage banner ad
image banner ad

EDRHS - Rheinstetten

Located in , Germany

ICAO - , IATA -

Data provided by Airmate  

General information

Coordinates: N48°58'40" E8°20'33"
Elevation is 380 feet MSL.
 
View others Airports in Baden-Württemberg

Operational data

Special qualification required
Current time UTC:
Current local time:
Weather at : EDSB - Karlsruhe/Baden-Baden ( 29 km )
METAR: EDSB 290650Z 19004KT CAVOK 16/14 Q1019
TAF: TAF EDSB 290500Z 2906/3006 VRB03KT CAVOK BECMG 2906/2909 21008KT BECMG 2921/2924 VRB03KT TEMPO 3003/3006 4000 BR BKN008
View NOTAMs / SUP AIP / TFR affecting this airport [VIEW]
Communications frequencies: [VIEW]

Runways:

RWY identifierQFULength (ft)Width (ft)SurfaceLDA (ft)
0216°272398GRASS2723
20196°272398GRASS2182

Airport contact information

Address: Germany

Other aviation service providers

Aviation club (not for profit)

Luftsportverein Albgau E.V.Ettlingen

Luftsportverein Albgau E.V.Ettlingen
info@lsv-albgau.de+490721518399

Satellite view of EDRHS